Time;durP1;ratioP1;P1;durP2;ratioP2;P2;SDS_P1;SDS_P2;PMS_P1;PMS_P2;Temp;Humidity;BMP_temperature;BMP_pressure;BME280_temperature;BME280_humidity;BME280_pressure;Samples;Min_cycle;Max_cycle;Signal;HPM_P1;HPM_P2
2023/04/12 00:00:10;;;;;;;1.90;0.70;;;;;;;8.36;100.00;99980.84;702061;28;906;-66
2023/04/12 00:00:31;;;;;;;2.17;0.60;;;;;;;8.39;100.00;99983.44;703461;28;839;-66
2023/04/12 00:00:51;;;;;;;2.88;0.65;;;;;;;8.44;100.00;99978.19;700194;28;1318;-64
2023/04/12 00:01:12;;;;;;;1.63;0.60;;;;;;;8.42;100.00;99978.22;699308;28;4278;-65
2023/04/12 00:01:32;;;;;;;1.60;0.80;;;;;;;8.44;100.00;99980.81;700415;28;1075;-66
2023/04/12 00:01:52;;;;;;;1.50;0.80;;;;;;;8.42;100.00;99972.13;699378;28;869;-67
2023/04/12 00:02:13;;;;;;;1.20;0.60;;;;;;;8.47;100.00;99981.69;698003;28;1624;-67
2023/04/12 00:02:34;;;;;;;1.60;0.90;;;;;;;8.47;100.00;99976.50;698904;28;951;-66
2023/04/12 00:02:54;;;;;;;1.45;0.90;;;;;;;8.54;100.00;99973.81;701509;28;868;-66
2023/04/12 00:03:19;;;;;;;3.03;0.97;;;;;;;8.60;100.00;99973.75;700763;28;1477;-66
2023/04/12 00:03:39;;;;;;;2.80;0.85;;;;;;;8.64;100.00;99975.47;700588;28;868;-66
2023/04/12 00:04:03;;;;;;;2.40;0.95;;;;;;;8.51;100.00;99975.59;701529;28;927;-65
2023/04/12 00:04:25;;;;;;;1.50;0.90;;;;;;;8.41;100.00;99970.41;701376;28;4813;-66
2023/04/12 00:04:54;;;;;;;1.65;0.80;;;;;;;8.42;100.00;99972.13;702672;28;983;-66
2023/04/12 00:05:15;;;;;;;1.67;0.75;;;;;;;8.40;100.00;99966.06;702200;28;1430;-65
2023/04/12 00:05:36;;;;;;;1.55;0.73;;;;;;;8.35;100.00;99966.13;704102;28;880;-67
2023/04/12 00:05:58;;;;;;;1.60;0.80;;;;;;;8.30;100.00;99962.66;699275;28;1430;-65
2023/04/12 00:06:24;;;;;;;1.33;0.80;;;;;;;8.31;100.00;99964.41;700147;28;1538;-67
2023/04/12 00:06:47;;;;;;;1.23;0.70;;;;;;;8.40;100.00;99966.94;696514;28;971;-66
2023/04/12 00:07:08;;;;;;;1.08;0.75;;;;;;;8.40;100.00;99966.06;695816;28;4442;-67
2023/04/12 00:07:29;;;;;;;1.08;0.50;;;;;;;8.33;100.00;99966.13;696020;28;1093;-67
2023/04/12 00:07:52;;;;;;;1.87;0.70;;;;;;;8.40;100.00;99961.72;698782;28;865;-67
2023/04/12 00:08:14;;;;;;;1.58;0.82;;;;;;;8.41;100.00;99965.22;699637;28;1005;-67
2023/04/12 00:08:35;;;;;;;2.22;0.88;;;;;;;8.34;100.00;99954.81;701373;28;1003;-67
2023/04/12 00:08:55;;;;;;;2.23;0.80;;;;;;;8.30;100.00;99962.66;702570;28;991;-68
2023/04/12 00:09:15;;;;;;;1.67;0.80;;;;;;;8.24;100.00;99962.69;699486;28;1516;-64
2023/04/12 00:09:36;;;;;;;1.17;0.80;;;;;;;8.22;100.00;99952.28;699713;28;907;-66
2023/04/12 00:09:57;;;;;;;1.98;0.80;;;;;;;8.32;100.00;99958.31;698335;28;1055;-68
2023/04/12 00:10:18;;;;;;;2.23;0.97;;;;;;;8.29;100.00;99960.94;696507;28;4274;-67
2023/04/12 00:10:39;;;;;;;1.60;0.75;;;;;;;8.26;100.00;99959.22;698339;28;816;-67
2023/04/12 00:11:02;;;;;;;1.50;0.70;;;;;;;8.21;100.00;99958.41;691973;28;1445;-66
2023/04/12 00:11:22;;;;;;;2.33;0.73;;;;;;;8.13;100.00;99954.97;691234;28;873;-65
2023/04/12 00:11:43;;;;;;;1.40;0.70;;;;;;;8.11;100.00;99962.81;691890;28;941;-66
2023/04/12 00:12:05;;;;;;;0.82;0.57;;;;;;;8.11;100.00;99967.13;691788;28;1550;-66
2023/04/12 00:12:25;;;;;;;1.33;0.70;;;;;;;8.08;100.00;99956.72;691683;28;972;-66
2023/04/12 00:12:46;;;;;;;1.47;0.73;;;;;;;8.05;100.00;99959.38;693040;28;1465;-66
2023/04/12 00:13:07;;;;;;;1.45;0.68;;;;;;;8.01;100.00;99954.16;694834;28;4426;-67
2023/04/12 00:13:28;;;;;;;1.77;0.70;;;;;;;8.02;100.00;99960.25;695410;28;1199;-66
2023/04/12 00:13:48;;;;;;;2.67;0.93;;;;;;;8.08;100.00;99957.59;695806;28;1848;-68
2023/04/12 00:14:08;;;;;;;4.10;1.13;;;;;;;8.17;100.00;99954.94;695551;28;1452;-67
2023/04/12 00:14:29;;;;;;;2.10;1.13;;;;;;;8.14;100.00;99952.38;695679;28;1154;-66
2023/04/12 00:14:49;;;;;;;1.20;0.80;;;;;;;8.16;100.00;99950.59;695972;28;1544;-65
2023/04/12 00:15:10;;;;;;;0.82;0.60;;;;;;;8.16;100.00;99955.81;698262;28;1531;-66
2023/04/12 00:15:31;;;;;;;1.30;0.70;;;;;;;8.18;100.00;99940.16;701341;28;1977;-67
2023/04/12 00:15:51;;;;;;;2.73;0.80;;;;;;;8.26;100.00;99946.19;701274;28;908;-67
2023/04/12 00:16:14;;;;;;;3.15;0.90;;;;;;;8.28;100.00;99938.38;697194;28;4474;-66
2023/04/12 00:16:37;;;;;;;1.20;0.70;;;;;;;8.22;100.00;99938.41;696160;28;1589;-66
2023/04/12 00:16:57;;;;;;;1.08;0.70;;;;;;;8.19;100.00;99939.31;695608;28;1062;-67
2023/04/12 00:17:18;;;;;;;0.90;0.60;;;;;;;8.17;100.00;99936.72;693840;28;1456;-66
2023/04/12 00:17:38;;;;;;;1.75;0.60;;;;;;;8.12;100.00;99943.69;693842;28;995;-66
2023/04/12 00:17:59;;;;;;;2.00;0.80;;;;;;;8.13;100.00;99937.59;694742;28;889;-66
2023/04/12 00:18:24;;;;;;;1.67;0.70;;;;;;;8.12;100.00;99938.47;695876;28;1484;-66
2023/04/12 00:18:44;;;;;;;2.42;0.90;;;;;;;8.09;100.00;99937.66;698021;28;761;-66
2023/04/12 00:19:05;;;;;;;1.27;0.60;;;;;;;8.03;100.00;99943.75;698943;28;4530;-66
2023/04/12 00:19:26;;;;;;;1.60;0.70;;;;;;;8.00;100.00;99938.53;699346;28;994;-66
2023/04/12 00:19:48;;;;;;;2.42;0.85;;;;;;;7.97;100.00;99939.41;699114;28;2948;-65
2023/04/12 00:20:12;;;;;;;1.73;0.77;;;;;;;7.98;100.00;99937.69;700099;28;1462;-66
2023/04/12 00:20:33;;;;;;;1.20;0.63;;;;;;;8.06;100.00;99927.22;703435;28;994;-66
2023/04/12 00:20:56;;;;;;;0.67;0.57;;;;;;;8.14;100.00;99933.25;702632;28;915;-66
2023/04/12 00:21:18;;;;;;;0.95;0.57;;;;;;;8.18;100.00;99937.56;699187;28;1483;-67
2023/04/12 00:21:38;;;;;;;1.13;0.80;;;;;;;8.08;100.00;99931.56;700094;28;1278;-66
2023/04/12 00:21:59;;;;;;;1.57;0.70;;;;;;;8.02;100.00;99926.41;699937;28;994;-66
2023/04/12 00:22:19;;;;;;;1.23;0.80;;;;;;;8.02;100.00;99927.25;699003;28;4438;-66
2023/04/12 00:22:43;;;;;;;0.73;0.60;;;;;;;8.04;100.00;99927.25;700311;28;919;-66
2023/04/12 00:23:04;;;;;;;1.10;0.70;;;;;;;8.01;100.00;99924.66;700193;28;1505;-66
2023/04/12 00:23:24;;;;;;;1.00;0.63;;;;;;;7.97;100.00;99925.56;699140;28;908;-66
2023/04/12 00:23:48;;;;;;;0.87;0.60;;;;;;;7.96;100.00;99926.41;700303;28;808;-66
2023/04/12 00:24:08;;;;;;;0.60;0.50;;;;;;;7.96;100.00;99927.31;701836;28;1559;-66
2023/04/12 00:24:29;;;;;;;1.10;0.50;;;;;;;7.92;100.00;99927.31;703278;28;971;-66
2023/04/12 00:24:49;;;;;;;1.40;0.60;;;;;;;7.87;100.00;99929.09;702115;28;848;-66
2023/04/12 00:25:10;;;;;;;1.20;0.77;;;;;;;7.89;100.00;99924.72;697742;28;4328;-66
2023/04/12 00:25:30;;;;;;;1.08;0.80;;;;;;;7.91;100.00;99923.00;699675;28;967;-65
2023/04/12 00:25:50;;;;;;;0.70;0.60;;;;;;;7.90;100.00;99935.13;698816;28;808;-66
2023/04/12 00:26:11;;;;;;;1.15;0.70;;;;;;;7.84;100.00;99925.63;700174;28;1504;-66
2023/04/12 00:26:32;;;;;;;1.38;0.70;;;;;;;7.84;100.00;99927.38;697319;28;1292;-65
2023/04/12 00:26:53;;;;;;;1.63;0.70;;;;;;;7.82;100.00;99930.00;697722;28;842;-65
2023/04/12 00:27:13;;;;;;;1.30;0.60;;;;;;;7.88;100.00;99928.19;699802;28;1674;-66
2023/04/12 00:27:34;;;;;;;1.17;0.60;;;;;;;7.82;100.00;99924.78;700129;28;994;-67
2023/04/12 00:27:55;;;;;;;1.55;0.80;;;;;;;7.82;100.00;99929.09;697578;28;1050;-66
2023/04/12 00:28:16;;;;;;;1.85;0.75;;;;;;;7.77;100.00;99923.94;697218;28;4477;-66
2023/04/12 00:28:37;;;;;;;1.42;0.70;;;;;;;7.79;100.00;99923.91;696911;28;1067;-66
2023/04/12 00:28:57;;;;;;;1.73;0.68;;;;;;;7.78;100.00;99922.19;696818;28;916;-66
2023/04/12 00:29:18;;;;;;;1.67;0.73;;;;;;;7.77;100.00;99921.34;697455;28;1452;-66
2023/04/12 00:29:38;;;;;;;1.43;0.63;;;;;;;7.80;100.00;99920.44;695720;28;1528;-65
2023/04/12 00:29:58;;;;;;;1.03;0.50;;;;;;;7.77;100.00;99916.13;698714;28;789;-65
2023/04/12 00:30:22;;;;;;;1.63;0.77;;;;;;;7.75;100.00;99917.84;697846;28;1578;-65
2023/04/12 00:30:44;;;;;;;1.77;0.93;;;;;;;7.75;100.00;99917.84;695779;28;1248;-66
2023/04/12 00:31:05;;;;;;;2.00;0.88;;;;;;;7.80;100.00;99916.09;693840;28;4305;-66
2023/04/12 00:31:28;;;;;;;1.50;0.63;;;;;;;7.81;100.00;99914.38;693279;28;861;-66
2023/04/12 00:31:48;;;;;;;1.30;0.70;;;;;;;7.87;100.00;99916.94;694767;28;1015;-65
2023/04/12 00:32:10;;;;;;;1.13;0.70;;;;;;;7.83;100.00;99905.66;693878;28;1785;-66
2023/04/12 00:32:31;;;;;;;1.00;0.60;;;;;;;7.80;100.00;99905.69;695863;28;869;-65
2023/04/12 00:32:51;;;;;;;1.40;0.70;;;;;;;7.77;100.00;99910.91;696617;28;824;-65
2023/04/12 00:33:12;;;;;;;1.15;0.70;;;;;;;7.74;100.00;99905.75;697925;28;1553;-65
2023/04/12 00:33:36;;;;;;;1.07;0.77;;;;;;;7.66;100.00;99902.31;698172;28;995;-65
2023/04/12 00:33:57;;;;;;;1.23;0.68;;;;;;;7.71;100.00;99908.34;698839;28;965;-65
2023/04/12 00:34:19;;;;;;;1.30;0.60;;;;;;;7.67;100.00;99898.84;697530;28;4490;-66
2023/04/12 00:34:40;;;;;;;1.38;0.75;;;;;;;7.67;100.00;99909.25;698543;28;870;-66
2023/04/12 00:35:01;;;;;;;1.50;0.82;;;;;;;7.70;100.00;99903.16;694689;28;853;-64
2023/04/12 00:35:21;;;;;;;1.00;0.50;;;;;;;7.69;100.00;99896.22;691875;28;1974;-64
2023/04/12 00:35:42;;;;;;;0.60;0.40;;;;;;;7.69;100.00;99902.28;692109;28;829;-64
2023/04/12 00:36:02;;;;;;;1.52;0.80;;;;;;;7.66;100.00;99895.38;691717;28;929;-65
2023/04/12 00:36:22;;;;;;;2.63;1.20;;;;;;;7.63;100.00;99904.94;695439;28;1561;-64
2023/04/12 00:36:43;;;;;;;2.42;1.10;;;;;;;7.64;100.00;99896.25;695647;28;1167;-65
2023/04/12 00:37:04;;;;;;;0.60;0.60;;;;;;;7.74;100.00;99900.53;692216;28;4447;-65
2023/04/12 00:37:24;;;;;;;0.93;0.52;;;;;;;7.72;100.00;99894.47;693476;28;1420;-65
2023/04/12 00:37:45;;;;;;;1.73;0.87;;;;;;;7.69;100.00;99897.09;692340;28;912;-65
2023/04/12 00:38:09;;;;;;;1.35;0.77;;;;;;;7.61;100.00;99891.91;690914;28;1553;-65
2023/04/12 00:38:30;;;;;;;1.02;0.60;;;;;;;7.54;100.00;99894.56;692659;28;1206;-63
2023/04/12 00:38:51;;;;;;;1.33;0.70;;;;;;;7.58;100.00;99889.34;696777;28;990;-66
2023/04/12 00:39:11;;;;;;;1.50;0.60;;;;;;;7.66;100.00;99884.97;694469;28;1452;-64
2023/04/12 00:39:32;;;;;;;1.95;0.80;;;;;;;7.63;100.00;99884.97;694834;28;1281;-65
2023/04/12 00:39:53;;;;;;;1.17;0.80;;;;;;;7.63;100.00;99895.38;693269;28;1381;-65
2023/04/12 00:40:14;;;;;;;1.20;0.80;;;;;;;7.64;100.00;99893.63;691051;28;4275;-65
2023/04/12 00:40:36;;;;;;;1.40;0.80;;;;;;;7.64;100.00;99883.22;692718;28;778;-65
2023/04/12 00:40:56;;;;;;;1.58;0.90;;;;;;;7.59;100.00;99891.06;692479;28;908;-65
2023/04/12 00:41:17;;;;;;;2.30;0.90;;;;;;;7.63;100.00;99876.31;691242;28;1511;-64
2023/04/12 00:41:37;;;;;;;1.20;0.53;;;;;;;7.64;100.00;99888.44;696599;28;916;-64
2023/04/12 00:42:02;;;;;;;0.80;0.50;;;;;;;7.62;100.00;99875.44;700285;28;1022;-65
2023/04/12 00:42:22;;;;;;;1.35;0.60;;;;;;;7.59;100.00;99878.06;700851;28;5138;-65
2023/04/12 00:42:43;;;;;;;2.10;0.63;;;;;;;7.55;100.00;99878.09;699819;28;804;-65
2023/04/12 00:43:03;;;;;;;1.00;0.70;;;;;;;7.56;100.00;99882.41;700557;28;4453;-65
2023/04/12 00:43:26;;;;;;;1.10;0.50;;;;;;;7.60;100.00;99876.31;699740;28;1532;-66
2023/04/12 00:43:46;;;;;;;2.33;0.90;;;;;;;7.60;100.00;99878.91;700344;28;959;-65
2023/04/12 00:44:07;;;;;;;1.35;0.82;;;;;;;7.57;100.00;99873.75;700623;28;1466;-65
2023/04/12 00:44:28;;;;;;;1.90;0.90;;;;;;;7.55;100.00;99873.75;701509;28;1235;-65
2023/04/12 00:44:49;;;;;;;2.20;0.75;;;;;;;7.54;100.00;99872.00;700624;28;840;-64
2023/04/12 00:45:11;;;;;;;2.28;0.85;;;;;;;7.53;100.00;99867.69;701003;28;1534;-64
2023/04/12 00:45:32;;;;;;;1.67;0.77;;;;;;;7.57;100.00;99873.75;700980;28;1026;-64
2023/04/12 00:45:55;;;;;;;1.30;0.60;;;;;;;7.53;100.00;99866.81;700270;28;1250;-64
2023/04/12 00:46:19;;;;;;;0.77;0.60;;;;;;;7.53;100.00;99867.69;700244;28;4268;-65
2023/04/12 00:46:40;;;;;;;0.70;0.60;;;;;;;7.54;100.00;99865.97;701683;28;894;-65
2023/04/12 00:47:04;;;;;;;1.33;0.70;;;;;;;7.56;100.00;99867.69;697727;28;1862;-65
2023/04/12 00:47:24;;;;;;;1.90;0.70;;;;;;;7.60;100.00;99871.13;695537;28;1015;-65
2023/04/12 00:47:49;;;;;;;1.17;0.60;;;;;;;7.71;100.00;99858.91;694735;28;928;-64
2023/04/12 00:48:09;;;;;;;1.00;0.65;;;;;;;7.72;100.00;99865.84;695870;28;1739;-64
2023/04/12 00:48:30;;;;;;;1.73;0.80;;;;;;;7.67;100.00;99857.22;696261;28;801;-64
2023/04/12 00:48:51;;;;;;;2.15;0.80;;;;;;;7.72;100.00;99855.44;696963;28;1102;-64
2023/04/12 00:49:11;;;;;;;1.88;0.80;;;;;;;7.67;100.00;99857.22;696133;28;4511;-64
2023/04/12 00:49:33;;;;;;;1.60;0.80;;;;;;;7.64;100.00;99852.00;699483;28;983;-64
2023/04/12 00:49:53;;;;;;;1.70;0.80;;;;;;;7.58;100.00;99855.50;698730;28;1400;-64
2023/04/12 00:50:13;;;;;;;1.30;0.70;;;;;;;7.55;100.00;99850.34;698458;28;1474;-64
2023/04/12 00:50:36;;;;;;;2.50;0.90;;;;;;;7.60;100.00;99850.31;692669;28;940;-64
2023/04/12 00:50:57;;;;;;;2.28;0.80;;;;;;;7.57;100.00;99845.13;692594;28;1379;-64
2023/04/12 00:51:21;;;;;;;0.70;0.57;;;;;;;7.58;100.00;99857.25;693052;28;1496;-64
2023/04/12 00:51:42;;;;;;;1.58;0.50;;;;;;;7.53;100.00;99849.47;694547;28;817;-64
2023/04/12 00:52:07;;;;;;;1.50;0.63;;;;;;;7.50;100.00;99850.38;692771;28;4620;-65
2023/04/12 00:52:32;;;;;;;1.60;0.90;;;;;;;7.48;100.00;99844.31;692481;28;1989;-63
2023/04/12 00:52:54;;;;;;;1.25;0.70;;;;;;;7.46;100.00;99839.97;690653;28;2101;-64
2023/04/12 00:53:16;;;;;;;1.50;0.80;;;;;;;7.55;100.00;99852.09;693738;28;1228;-63
2023/04/12 00:53:37;;;;;;;1.73;0.82;;;;;;;7.53;100.00;99852.06;695637;28;825;-64
2023/04/12 00:53:58;;;;;;;1.67;0.70;;;;;;;7.49;100.00;99853.84;695674;28;1019;-64
2023/04/12 00:54:19;;;;;;;1.48;0.80;;;;;;;7.47;100.00;99844.31;696284;28;1456;-64
2023/04/12 00:54:41;;;;;;;2.03;0.70;;;;;;;7.48;100.00;99841.69;697960;28;841;-63
2023/04/12 00:55:06;;;;;;;1.73;0.80;;;;;;;7.50;100.00;99839.97;695866;28;1207;-64
2023/04/12 00:55:26;;;;;;;1.48;0.80;;;;;;;7.52;100.00;99842.56;697721;28;4909;-63
2023/04/12 00:55:48;;;;;;;0.90;0.53;;;;;;;7.57;100.00;99842.53;697998;28;984;-64
2023/04/12 00:56:10;;;;;;;1.63;0.55;;;;;;;7.52;100.00;99836.47;698273;28;1573;-63
2023/04/12 00:56:32;;;;;;;1.15;0.60;;;;;;;7.56;100.00;99840.78;696292;28;853;-63
2023/04/12 00:56:52;;;;;;;1.25;0.70;;;;;;;7.55;100.00;99839.94;695842;28;1030;-64
2023/04/12 00:57:13;;;;;;;1.30;0.70;;;;;;;7.51;100.00;99840.81;697147;28;1454;-64
2023/04/12 00:57:35;;;;;;;1.60;0.60;;;;;;;7.58;100.00;99846.88;698292;28;903;-64
2023/04/12 00:57:56;;;;;;;1.92;0.80;;;;;;;7.57;100.00;99845.97;697827;28;872;-64
2023/04/12 00:58:16;;;;;;;1.85;1.02;;;;;;;7.63;100.00;99847.72;695614;28;4562;-63
2023/04/12 00:58:37;;;;;;;1.60;0.80;;;;;;;7.59;100.00;99841.66;699181;28;946;-64
2023/04/12 00:58:57;;;;;;;2.27;1.00;;;;;;;7.55;100.00;99846.88;697452;28;1074;-63
2023/04/12 00:59:18;;;;;;;1.87;0.80;;;;;;;7.61;100.00;99839.88;695840;28;1606;-62
2023/04/12 00:59:38;;;;;;;2.10;0.67;;;;;;;7.73;100.00;99848.53;696251;28;829;-64
2023/04/12 00:59:58;;;;;;;2.90;0.68;;;;;;;7.61;100.00;99847.69;693753;28;1162;-63
2023/04/12 01:00:19;;;;;;;2.03;0.80;;;;;;;7.55;100.00;99837.34;692824;28;1440;-64
2023/04/12 01:00:40;;;;;;;1.85;0.90;;;;;;;7.51;100.00;99846.03;690733;28;1376;-64
2023/04/12 01:01:01;;;;;;;1.60;0.70;;;;;;;7.46;100.00;99840.88;696478;28;1281;-63
2023/04/12 01:01:22;;;;;;;2.30;0.80;;;;;;;7.45;100.00;99846.06;697990;28;4328;-64
2023/04/12 01:01:44;;;;;;;2.30;0.80;;;;;;;7.53;100.00;99840.81;693945;28;857;-63
2023/04/12 01:02:06;;;;;;;2.80;0.80;;;;;;;7.60;100.00;99842.50;693880;28;829;-64
2023/04/12 01:02:29;;;;;;;2.05;0.88;;;;;;;7.56;100.00;99833.88;692864;28;1903;-63
2023/04/12 01:02:50;;;;;;;2.08;0.80;;;;;;;7.52;100.00;99842.56;694167;28;1047;-63
2023/04/12 01:03:12;;;;;;;2.10;0.68;;;;;;;7.57;100.00;99834.72;694994;28;1534;-64
2023/04/12 01:03:32;;;;;;;2.05;0.80;;;;;;;7.53;100.00;99839.06;696272;28;826;-64
2023/04/12 01:03:59;;;;;;;1.63;0.70;;;;;;;7.54;100.00;99832.16;695972;28;1235;-63
2023/04/12 01:04:25;;;;;;;0.80;0.70;;;;;;;7.48;100.00;99826.09;697020;28;4701;-64
2023/04/12 01:04:49;;;;;;;1.60;0.73;;;;;;;7.46;100.00;99838.25;696432;28;901;-63
2023/04/12 01:05:13;;;;;;;1.50;0.70;;;;;;;7.43;100.00;99832.19;695605;28;1767;-64
2023/04/12 01:05:42;;;;;;;1.88;1.00;;;;;;;7.40;100.00;99825.28;696336;28;983;-63
2023/04/12 01:06:32;;;;;;;1.30;0.65;;;;;;;7.42;100.00;99830.47;697107;28;1181;-64
2023/04/12 01:07:01;;;;;;;3.05;1.00;;;;;;;7.39;100.00;99826.13;694433;28;2037;-64
2023/04/12 01:07:44;;;;;;;1.67;0.70;;;;;;;7.39;100.00;99825.28;693397;28;4422;-63
2023/04/12 01:08:28;;;;;;;0.82;0.70;;;;;;;7.32;100.00;99825.34;696561;28;1415;-63
2023/04/12 01:09:07;;;;;;;1.50;0.60;;;;;;;7.35;100.00;99833.97;689683;28;1204;-62
2023/04/12 01:10:13;;;;;;;1.67;0.68;;;;;;;7.41;100.00;99824.41;686061;28;1321;-63
2023/04/12 01:10:52;;;;;;;1.25;0.73;;;;;;;7.44;100.00;99823.53;688428;28;6557;-64
2023/04/12 01:11:22;;;;;;;1.50;0.80;;;;;;;7.47;100.00;99819.16;695662;28;1520;-64
2023/04/12 01:11:56;;;;;;;1.95;0.90;;;;;;;7.47;100.00;99816.56;696277;28;827;-64
2023/04/12 01:12:37;;;;;;;2.08;1.00;;;;;;;7.43;100.00;99820.03;692686;28;1450;-64
2023/04/12 01:13:13;;;;;;;1.80;0.90;;;;;;;7.43;100.00;99816.59;694895;28;1593;-63
2023/04/12 01:13:40;;;;;;;0.93;0.60;;;;;;;7.46;100.00;99816.56;695188;28;7095;-64
2023/04/12 01:14:04;;;;;;;1.40;0.90;;;;;;;7.38;100.00;99815.75;691089;28;1411;-63
2023/04/12 01:14:24;;;;;;;0.65;0.55;;;;;;;7.39;100.00;99820.94;692364;28;1610;-63
2023/04/12 01:15:02;;;;;;;1.00;0.80;;;;;;;7.40;100.00;99817.47;692280;28;884;-64
2023/04/12 01:15:26;;;;;;;1.33;0.80;;;;;;;7.36;100.00;99805.34;692357;28;2014;-63
2023/04/12 01:15:56;;;;;;;1.65;0.80;;;;;;;7.37;100.00;99814.03;693625;28;1317;-63
2023/04/12 01:16:29;;;;;;;1.40;0.57;;;;;;;7.41;100.00;99808.81;693912;28;4340;-63
2023/04/12 01:16:55;;;;;;;1.65;0.75;;;;;;;7.40;100.00;99799.28;692121;28;1465;-62
2023/04/12 01:17:23;;;;;;;1.00;0.60;;;;;;;7.36;100.00;99805.34;694637;28;1551;-62
2023/04/12 01:17:56;;;;;;;2.10;1.20;;;;;;;7.39;100.00;99807.94;697883;28;1518;-62
2023/04/12 01:18:22;;;;;;;1.30;0.80;;;;;;;7.36;100.00;99796.72;700769;28;1595;-63
2023/04/12 01:18:49;;;;;;;1.52;0.75;;;;;;;7.36;100.00;99799.31;699502;28;1412;-64
2023/04/12 01:19:44;;;;;;;1.67;0.75;;;;;;;7.32;100.00;99801.03;693382;28;4341;-64
2023/04/12 01:20:13;;;;;;;1.48;0.70;;;;;;;7.42;100.00;99794.94;693448;28;1465;-63
2023/04/12 01:20:48;;;;;;;0.80;0.50;;;;;;;7.54;100.00;99798.34;698243;28;963;-63
2023/04/12 01:21:17;;;;;;;1.50;0.75;;;;;;;7.48;100.00;99797.50;699411;28;2603;-63
2023/04/12 01:22:06;;;;;;;2.55;1.00;;;;;;;7.50;100.00;99800.06;700627;28;1279;-64
2023/04/12 01:22:44;;;;;;;0.80;0.60;;;;;;;7.40;100.00;99799.28;700516;28;4993;-63
2023/04/12 01:23:42;;;;;;;0.95;0.80;;;;;;;7.34;100.00;99794.13;701846;28;1487;-62
2023/04/12 01:24:21;;;;;;;1.60;0.70;;;;;;;7.25;100.00;99794.16;699425;28;1235;-62
2023/04/12 01:25:01;;;;;;;2.10;0.85;;;;;;;7.19;100.00;99791.59;694839;28;1251;-63
2023/04/12 01:25:46;;;;;;;1.23;0.80;;;;;;;7.19;100.00;99789.00;693971;28;4467;-63
2023/04/12 01:26:31;;;;;;;1.25;0.70;;;;;;;7.24;100.00;99790.72;698088;28;1460;-62
2023/04/12 01:26:56;;;;;;;2.60;1.00;;;;;;;7.30;100.00;99789.81;700769;28;1734;-63
2023/04/12 01:27:44;;;;;;;2.53;0.90;;;;;;;7.32;100.00;99790.66;697205;28;1494;-63
2023/04/12 01:28:07;;;;;;;1.67;0.80;;;;;;;7.21;100.00;99784.66;689498;28;4796;-63
2023/04/12 01:28:32;;;;;;;1.33;0.70;;;;;;;7.19;100.00;99783.81;699215;28;1078;-62
2023/04/12 01:28:53;;;;;;;1.58;0.80;;;;;;;7.25;100.00;99788.97;698161;28;1231;-63
2023/04/12 01:29:15;;;;;;;1.58;0.75;;;;;;;7.27;100.00;99780.28;697777;28;1577;-63
2023/04/12 01:29:37;;;;;;;1.58;0.70;;;;;;;7.29;100.00;99783.72;698309;28;868;-62
2023/04/12 01:30:00;;;;;;;1.35;0.75;;;;;;;7.31;100.00;99783.72;698034;28;1006;-63
2023/04/12 01:30:23;;;;;;;1.38;0.85;;;;;;;7.29;100.00;99782.88;697295;28;1494;-62
2023/04/12 01:30:50;;;;;;;0.90;0.60;;;;;;;7.31;100.00;99778.50;696500;28;939;-62
2023/04/12 01:31:12;;;;;;;0.65;0.60;;;;;;;7.30;100.00;99784.59;699810;28;4371;-63
2023/04/12 01:31:34;;;;;;;0.75;0.55;;;;;;;7.24;100.00;99777.72;700041;28;1013;-63
2023/04/12 01:32:01;;;;;;;0.90;0.70;;;;;;;7.22;100.00;99781.19;701500;28;927;-62
2023/04/12 01:32:24;;;;;;;1.13;0.70;;;;;;;7.22;100.00;99775.97;697906;28;1509;-62
2023/04/12 01:32:50;;;;;;;1.13;0.80;;;;;;;7.24;100.00;99774.22;697890;28;1263;-62
2023/04/12 01:33:11;;;;;;;2.13;1.25;;;;;;;7.29;100.00;99777.66;695627;28;1453;-63
2023/04/12 01:33:35;;;;;;;1.60;0.70;;;;;;;7.27;100.00;99774.19;693637;28;928;-62
2023/04/12 01:33:58;;;;;;;1.30;0.65;;;;;;;7.23;100.00;99767.31;694131;28;959;-62
2023/04/12 01:34:20;;;;;;;1.40;0.70;;;;;;;7.24;100.00;99769.03;692600;28;4439;-63
2023/04/12 01:34:42;;;;;;;1.25;0.60;;;;;;;7.28;100.00;99771.63;697530;28;893;-63
2023/04/12 01:35:04;;;;;;;2.72;0.93;;;;;;;7.26;100.00;99765.53;699440;28;899;-62
2023/04/12 01:35:32;;;;;;;1.10;0.60;;;;;;;7.25;100.00;99773.34;700111;28;1910;-62
2023/04/12 01:35:54;;;;;;;1.40;0.70;;;;;;;7.14;100.00;99771.69;697122;28;1412;-61
2023/04/12 01:36:19;;;;;;;1.35;0.68;;;;;;;7.11;100.00;99774.28;698126;28;1471;-61
2023/04/12 01:36:41;;;;;;;0.60;0.52;;;;;;;7.11;100.00;99770.84;700816;28;1058;-61
2023/04/12 01:37:02;;;;;;;0.65;0.50;;;;;;;7.11;100.00;99774.28;698026;28;1034;-62
2023/04/12 01:37:25;;;;;;;0.63;0.60;;;;;;;7.05;100.00;99774.31;693924;28;4284;-60
2023/04/12 01:37:47;;;;;;;0.88;0.60;;;;;;;7.05;100.00;99774.31;691764;28;1375;-59
2023/04/12 01:38:10;;;;;;;2.67;0.82;;;;;;;7.05;100.00;99765.66;692882;28;1594;-63
2023/04/12 01:38:32;;;;;;;2.03;0.80;;;;;;;7.08;100.00;99768.25;693291;28;1313;-62
2023/04/12 01:38:53;;;;;;;0.70;0.50;;;;;;;7.04;100.00;99775.19;694748;28;1118;-62
2023/04/12 01:39:14;;;;;;;2.00;0.70;;;;;;;7.08;100.00;99768.25;693080;28;1484;-62
2023/04/12 01:39:36;;;;;;;1.30;0.70;;;;;;;7.09;100.00;99760.44;693833;28;1213;-62
2023/04/12 01:39:56;;;;;;;0.88;0.77;;;;;;;7.15;100.00;99760.41;695122;28;872;-62
2023/04/12 01:40:18;;;;;;;1.48;0.60;;;;;;;7.17;100.00;99757.78;693229;28;4509;-62
2023/04/12 01:40:41;;;;;;;1.30;0.60;;;;;;;7.14;100.00;99760.41;693296;28;2104;-62
2023/04/12 01:41:01;;;;;;;2.55;0.70;;;;;;;7.18;100.00;99756.94;692910;28;976;-62
2023/04/12 01:41:22;;;;;;;2.35;0.82;;;;;;;7.16;100.00;99754.34;693709;28;1468;-61
2023/04/12 01:41:44;;;;;;;2.20;0.90;;;;;;;7.15;100.00;99760.41;696841;28;817;-62
2023/04/12 01:42:05;;;;;;;1.83;0.80;;;;;;;7.11;100.00;99756.09;697248;28;844;-62
2023/04/12 01:42:25;;;;;;;2.00;0.85;;;;;;;7.11;100.00;99752.63;698353;28;5143;-62
2023/04/12 01:42:46;;;;;;;1.20;0.53;;;;;;;7.18;100.00;99751.72;700527;28;797;-63
2023/04/12 01:43:11;;;;;;;0.88;0.60;;;;;;;7.14;100.00;99756.09;696577;28;4288;-63
2023/04/12 01:43:32;;;;;;;1.88;0.75;;;;;;;7.13;100.00;99754.38;694604;28;1448;-60
2023/04/12 01:43:52;;;;;;;1.63;0.98;;;;;;;7.24;100.00;99756.03;693899;28;1316;-62
2023/04/12 01:44:17;;;;;;;2.00;0.80;;;;;;;7.25;100.00;99755.16;692856;28;1471;-62
2023/04/12 01:44:38;;;;;;;1.60;0.70;;;;;;;7.33;100.00;99753.38;693227;28;890;-62
2023/04/12 01:45:00;;;;;;;1.17;0.73;;;;;;;7.29;100.00;99756.88;692368;28;1382;-62
2023/04/12 01:45:20;;;;;;;0.73;0.60;;;;;;;7.25;100.00;99755.16;690025;28;1885;-62
2023/04/12 01:45:41;;;;;;;0.90;0.60;;;;;;;7.24;100.00;99758.63;690411;28;1076;-62
2023/04/12 01:46:01;;;;;;;2.50;0.80;;;;;;;7.24;100.00;99758.63;692659;28;805;-62
2023/04/12 01:46:22;;;;;;;1.43;0.97;;;;;;;7.25;100.00;99756.00;695002;28;4553;-61
2023/04/12 01:46:46;;;;;;;1.10;0.80;;;;;;;7.23;100.00;99751.72;693745;28;1246;-62
2023/04/12 01:47:06;;;;;;;1.42;0.70;;;;;;;7.25;100.00;99749.97;696549;28;852;-63
2023/04/12 01:47:27;;;;;;;1.58;0.90;;;;;;;7.19;100.00;99755.22;698253;28;1823;-62
2023/04/12 01:47:47;;;;;;;1.60;0.95;;;;;;;7.20;100.00;99751.72;701697;28;963;-63
2023/04/12 01:48:10;;;;;;;1.23;0.60;;;;;;;7.23;100.00;99756.91;698298;28;1444;-62
2023/04/12 01:48:30;;;;;;;0.85;0.50;;;;;;;7.24;100.00;99753.44;698339;28;741;-62
2023/04/12 01:48:53;;;;;;;0.83;0.60;;;;;;;7.29;100.00;99749.06;696085;28;865;-62
2023/04/12 01:49:16;;;;;;;1.02;0.77;;;;;;;7.23;100.00;99751.72;696054;28;4495;-62
2023/04/12 01:49:48;;;;;;;0.93;0.60;;;;;;;7.28;100.00;99744.75;696118;28;1200;-62
2023/04/12 01:50:11;;;;;;;1.08;0.68;;;;;;;7.23;100.00;99742.19;695373;28;1413;-62
2023/04/12 01:50:44;;;;;;;1.60;0.70;;;;;;;7.20;100.00;99737.00;696018;28;1232;-62
2023/04/12 01:51:16;;;;;;;1.58;0.73;;;;;;;7.25;100.00;99736.97;695466;28;1239;-62
2023/04/12 01:51:58;;;;;;;1.08;0.60;;;;;;;7.28;100.00;99734.34;698613;28;889;-63
2023/04/12 01:52:20;;;;;;;1.17;0.80;;;;;;;7.24;100.00;99732.63;700395;28;4251;-62
2023/04/12 01:53:04;;;;;;;1.23;0.73;;;;;;;7.25;100.00;99731.75;701531;28;1185;-61
2023/04/12 01:53:40;;;;;;;1.80;0.63;;;;;;;7.27;100.00;99723.09;700648;28;1451;-62
2023/04/12 01:54:10;;;;;;;1.48;0.70;;;;;;;7.31;100.00;99724.78;701225;28;1211;-61
2023/04/12 01:54:35;;;;;;;1.17;0.70;;;;;;;7.26;100.00;99728.31;701166;28;945;-62
2023/04/12 01:55:02;;;;;;;1.70;0.70;;;;;;;7.21;100.00;99723.09;701154;28;900;-62
2023/04/12 01:55:28;;;;;;;0.85;0.55;;;;;;;7.21;100.00;99715.31;696887;28;4922;-62
2023/04/12 01:55:51;;;;;;;0.60;0.50;;;;;;;7.25;100.00;99718.75;695809;28;1517;-62